CheckWX is a tool to help pilots better visualize weather data.  It is not intended as a substitute for an official pre-flight weather briefing.

08:04:02 UTC

RKTU TAF
Cheongju International Airport
Cheongju, South Korea
TAF RKTU 270500Z 2706/2812 36006KT 9999 SCT030 SCT200 TN10/2721Z TX26/2806Z BECMG 2720/2721 21006KT 4800 BR NSC BECMG 2723/2724 9000 NSW BECMG 2803/2804 24006KT 9999 SCT040

May-27@
06:00 UTC

May-27 @ 06:00 UTC

May-27@
20:00 UTC

May-27 @ 20:00 UTC

TAF RKTU 270500Z 2706/2812 36006KT 9999 SCT030 SCT200 TN10/2721Z TX26/2806Z

Expired

Wind
  • 360° at 6 KTS
Cloud Levels
  • Scattered at 3,000' AGL
  • Scattered at 20,000' AGL

May-27@
20:00 UTC

May-27 @ 20:00 UTC

May-27@
23:00 UTC

May-27 @ 23:00 UTC

BECMG 2720/2721 21006KT 4800 BR NSC

Expired

Wind
  • 210° at 6 KTS
Conditions
Mist
Cloud Levels
  • No significant clouds

May-27@
23:00 UTC

May-27 @ 23:00 UTC

May-28@
03:00 UTC

May-28 @ 03:00 UTC

BECMG 2723/2724 9000 NSW

Expired

Wind
  • 210° at 6 KTS
Conditions
No significant weather
Cloud Levels
  • No significant clouds

May-28@
03:00 UTC

May-28 @ 03:00 UTC

May-28@
12:00 UTC

May-28 @ 12:00 UTC

BECMG 2803/2804 24006KT 9999 SCT040

Becoming

Becoming Conditions expected by Thu, May 28, 2020 @ 04:00 UTC

Wind
  • 240° at 6 KTS
Conditions
No significant weather
Cloud Levels
  • Scattered at 4,000' AGL